Aviation Digital Data Service (ADDS)

Output produced by METARs form (1658 UTC 23 January 2019)
found at http://www.aviationweather.gov/metar/data/
 
METAR text: UTSS 231630Z 14002KT 6000 NSC 01/M04 Q1022 R09/70D NOSIG
Conditions at: UTSS (SAMARKAND , UZ) observed 1630 UTC 23 January 2019
Temperature: 1.0°C (34°F)
Dewpoint: -4.0°C (25°F) [RH = 69%]
Pressure (altimeter): 30.18 inches Hg (1022.0 mb)
Winds: from the SE (140 degrees) at 2 MPH (2 knots; 1.0 m/s)
Visibility: 4 miles ( 6 km)
Ceiling: at least 12,000 feet AGL
Clouds: sky clear below 12,000 feet AGL
Weather: no significant weather observed at this time

METAR text: UTSS 231600Z 14004KT 6000 NSC 02/M04 Q1022 R09/70D NOSIG
Conditions at: UTSS (SAMARKAND , UZ) observed 1600 UTC 23 January 2019
Temperature: 2.0°C (36°F)
Dewpoint: -4.0°C (25°F) [RH = 64%]
Pressure (altimeter): 30.18 inches Hg (1022.0 mb)
Winds: from the SE (140 degrees) at 5 MPH (4 knots; 2.1 m/s)
Visibility: 4 miles ( 6 km)
Ceiling: at least 12,000 feet AGL
Clouds: sky clear below 12,000 feet AGL
Weather: no significant weather observed at this time

METAR text: UTSS 231530Z 11004KT 6000 NSC 03/M04 Q1022 R09/70D NOSIG
Conditions at: UTSS (SAMARKAND , UZ) observed 1530 UTC 23 January 2019
Temperature: 3.0°C (37°F)
Dewpoint: -4.0°C (25°F) [RH = 60%]
Pressure (altimeter): 30.18 inches Hg (1022.0 mb)
Winds: from the ESE (110 degrees) at 5 MPH (4 knots; 2.1 m/s)
Visibility: 4 miles ( 6 km)
Ceiling: at least 12,000 feet AGL
Clouds: sky clear below 12,000 feet AGL
Weather: no significant weather observed at this time

METAR text: UTSS 231500Z 10004KT 6000 NSC 02/M04 Q1022 R09/70D NOSIG
Conditions at: UTSS (SAMARKAND , UZ) observed 1500 UTC 23 January 2019
Temperature: 2.0°C (36°F)
Dewpoint: -4.0°C (25°F) [RH = 64%]
Pressure (altimeter): 30.18 inches Hg (1022.0 mb)
Winds: from the E (100 degrees) at 5 MPH (4 knots; 2.1 m/s)
Visibility: 4 miles ( 6 km)
Ceiling: at least 12,000 feet AGL
Clouds: sky clear below 12,000 feet AGL
Weather: no significant weather observed at this time

METAR text: UTSS 231430Z 10004KT 6000 NSC 02/M03 Q1022 R09/70D NOSIG
Conditions at: UTSS (SAMARKAND , UZ) observed 1430 UTC 23 January 2019
Temperature: 2.0°C (36°F)
Dewpoint: -3.0°C (27°F) [RH = 69%]
Pressure (altimeter): 30.18 inches Hg (1022.0 mb)
Winds: from the E (100 degrees) at 5 MPH (4 knots; 2.1 m/s)
Visibility: 4 miles ( 6 km)
Ceiling: at least 12,000 feet AGL
Clouds: sky clear below 12,000 feet AGL
Weather: no significant weather observed at this time

METAR text: UTSS 231400Z 11004KT 6000 NSC 03/M03 Q1022 R09/70D NOSIG
Conditions at: UTSS (SAMARKAND , UZ) observed 1400 UTC 23 January 2019
Temperature: 3.0°C (37°F)
Dewpoint: -3.0°C (27°F) [RH = 65%]
Pressure (altimeter): 30.18 inches Hg (1022.0 mb)
Winds: from the ESE (110 degrees) at 5 MPH (4 knots; 2.1 m/s)
Visibility: 4 miles ( 6 km)
Ceiling: at least 12,000 feet AGL
Clouds: sky clear below 12,000 feet AGL
Weather: no significant weather observed at this time

METAR text: UTSS 231330Z 10002KT 6000 NSC 03/M03 Q1021 R09/70D NOSIG
Conditions at: UTSS (SAMARKAND , UZ) observed 1330 UTC 23 January 2019
Temperature: 3.0°C (37°F)
Dewpoint: -3.0°C (27°F) [RH = 65%]
Pressure (altimeter): 30.15 inches Hg (1021.0 mb)
Winds: from the E (100 degrees) at 2 MPH (2 knots; 1.0 m/s)
Visibility: 4 miles ( 6 km)
Ceiling: at least 12,000 feet AGL
Clouds: sky clear below 12,000 feet AGL
Weather: no significant weather observed at this time

METAR text: UTSS 231300Z 04002KT 6000 NSC 03/M03 Q1021 R09/70D NOSIG
Conditions at: UTSS (SAMARKAND , UZ) observed 1300 UTC 23 January 2019
Temperature: 3.0°C (37°F)
Dewpoint: -3.0°C (27°F) [RH = 65%]
Pressure (altimeter): 30.15 inches Hg (1021.0 mb)
Winds: from the NE (40 degrees) at 2 MPH (2 knots; 1.0 m/s)
Visibility: 4 miles ( 6 km)
Ceiling: at least 12,000 feet AGL
Clouds: sky clear below 12,000 feet AGL
Weather: no significant weather observed at this time

METAR text: UTSS 231230Z 04002KT 9999 NSC 03/M03 Q1021 R09/70D NOSIG
Conditions at: UTSS (SAMARKAND , UZ) observed 1230 UTC 23 January 2019
Temperature: 3.0°C (37°F)
Dewpoint: -3.0°C (27°F) [RH = 65%]
Pressure (altimeter): 30.15 inches Hg (1021.0 mb)
Winds: from the NE (40 degrees) at 2 MPH (2 knots; 1.0 m/s)
Visibility: 6 or more miles (10+ km)
Ceiling: at least 12,000 feet AGL
Clouds: sky clear below 12,000 feet AGL
Weather: no significant weather observed at this time

METAR text: UTSS 231200Z 05002KT 9999 NSC 05/M04 Q1021 R09/70D NOSIG
Conditions at: UTSS (SAMARKAND , UZ) observed 1200 UTC 23 January 2019
Temperature: 5.0°C (41°F)
Dewpoint: -4.0°C (25°F) [RH = 52%]
Pressure (altimeter): 30.15 inches Hg (1021.0 mb)
Winds: from the NE (50 degrees) at 2 MPH (2 knots; 1.0 m/s)
Visibility: 6 or more miles (10+ km)
Ceiling: at least 12,000 feet AGL
Clouds: sky clear below 12,000 feet AGL
Weather: no significant weather observed at this time

METAR text: UTSS 231130Z 03004KT 350V060 9999 NSC 06/M04 Q1021 R27/70D NOSIG
Conditions at: UTSS (SAMARKAND , UZ) observed 1130 UTC 23 January 2019
Temperature: 6.0°C (43°F)
Dewpoint: -4.0°C (25°F) [RH = 49%]
Pressure (altimeter): 30.15 inches Hg (1021.0 mb)
Winds: from the NNE (30 degrees) at 5 MPH (4 knots; 2.1 m/s)
Visibility: 6 or more miles (10+ km)
Ceiling: at least 12,000 feet AGL
Clouds: sky clear below 12,000 feet AGL
Weather: no significant weather observed at this time

METAR text: UTSS 231100Z VRB02KT 9999 NSC 06/M04 Q1020 R09/70D NOSIG
Conditions at: UTSS (SAMARKAND , UZ) observed 1100 UTC 23 January 2019
Temperature: 6.0°C (43°F)
Dewpoint: -4.0°C (25°F) [RH = 49%]
Pressure (altimeter): 30.12 inches Hg (1020.0 mb)
Winds: variable direction winds at 2 MPH (2 knots; 1.0 m/s)
Visibility: 6 or more miles (10+ km)
Ceiling: at least 12,000 feet AGL
Clouds: sky clear below 12,000 feet AGL
Weather: no significant weather observed at this time

METAR text: UTSS 231030Z VRB02KT 9999 NSC 06/M04 Q1020 R09/70D NOSIG
Conditions at: UTSS (SAMARKAND , UZ) observed 1030 UTC 23 January 2019
Temperature: 6.0°C (43°F)
Dewpoint: -4.0°C (25°F) [RH = 49%]
Pressure (altimeter): 30.12 inches Hg (1020.0 mb)
Winds: variable direction winds at 2 MPH (2 knots; 1.0 m/s)
Visibility: 6 or more miles (10+ km)
Ceiling: at least 12,000 feet AGL
Clouds: sky clear below 12,000 feet AGL
Weather: no significant weather observed at this time

METAR text: UTSS 231000Z 01002KT 9999 NSC 06/M04 Q1020 R09/70D NOSIG
Conditions at: UTSS (SAMARKAND , UZ) observed 1000 UTC 23 January 2019
Temperature: 6.0°C (43°F)
Dewpoint: -4.0°C (25°F) [RH = 49%]
Pressure (altimeter): 30.12 inches Hg (1020.0 mb)
Winds: from the N (10 degrees) at 2 MPH (2 knots; 1.0 m/s)
Visibility: 6 or more miles (10+ km)
Ceiling: at least 12,000 feet AGL
Clouds: sky clear below 12,000 feet AGL
Weather: no significant weather observed at this time

METAR text: UTSS 230930Z 01004KT 320V060 9999 NSC 06/M04 Q1020 R09/70D NOSIG
Conditions at: UTSS (SAMARKAND , UZ) observed 0930 UTC 23 January 2019
Temperature: 6.0°C (43°F)
Dewpoint: -4.0°C (25°F) [RH = 49%]
Pressure (altimeter): 30.12 inches Hg (1020.0 mb)
Winds: from the N (10 degrees) at 5 MPH (4 knots; 2.1 m/s)
Visibility: 6 or more miles (10+ km)
Ceiling: at least 12,000 feet AGL
Clouds: sky clear below 12,000 feet AGL
Weather: no significant weather observed at this time

METAR text: UTSS 230900Z 36004KT 300V060 9999 NSC 05/M05 Q1020 R09/70D NOSIG
Conditions at: UTSS (SAMARKAND , UZ) observed 0900 UTC 23 January 2019
Temperature: 5.0°C (41°F)
Dewpoint: -5.0°C (23°F) [RH = 48%]
Pressure (altimeter): 30.12 inches Hg (1020.0 mb)
Winds: from the N (360 degrees) at 5 MPH (4 knots; 2.1 m/s)
Visibility: 6 or more miles (10+ km)
Ceiling: at least 12,000 feet AGL
Clouds: sky clear below 12,000 feet AGL
Weather: no significant weather observed at this time

METAR text: UTSS 230830Z 06004KT 350V120 9999 NSC 05/M05 Q1020 R09/70D NOSIG
Conditions at: UTSS (SAMARKAND , UZ) observed 0830 UTC 23 January 2019
Temperature: 5.0°C (41°F)
Dewpoint: -5.0°C (23°F) [RH = 48%]
Pressure (altimeter): 30.12 inches Hg (1020.0 mb)
Winds: from the ENE (60 degrees) at 5 MPH (4 knots; 2.1 m/s)
Visibility: 6 or more miles (10+ km)
Ceiling: at least 12,000 feet AGL
Clouds: sky clear below 12,000 feet AGL
Weather: no significant weather observed at this time

METAR text: UTSS 230800Z 02004KT 330V070 9999 NSC 05/M05 Q1020 R09/CLRD70 NOSIG
Conditions at: UTSS (SAMARKAND , UZ) observed 0800 UTC 23 January 2019
Temperature: 5.0°C (41°F)
Dewpoint: -5.0°C (23°F) [RH = 48%]
Pressure (altimeter): 30.12 inches Hg (1020.0 mb)
Winds: from the NNE (20 degrees) at 5 MPH (4 knots; 2.1 m/s)
Visibility: 6 or more miles (10+ km)
Ceiling: at least 12,000 feet AGL
Clouds: sky clear below 12,000 feet AGL
Weather: no significant weather observed at this time

METAR text: UTSS 230730Z 04004KT 350V100 9999 NSC 05/M05 Q1020 R09/70D NOSIG
Conditions at: UTSS (SAMARKAND , UZ) observed 0730 UTC 23 January 2019
Temperature: 5.0°C (41°F)
Dewpoint: -5.0°C (23°F) [RH = 48%]
Pressure (altimeter): 30.12 inches Hg (1020.0 mb)
Winds: from the NE (40 degrees) at 5 MPH (4 knots; 2.1 m/s)
Visibility: 6 or more miles (10+ km)
Ceiling: at least 12,000 feet AGL
Clouds: sky clear below 12,000 feet AGL
Weather: no significant weather observed at this time

METAR text: UTSS 230700Z 08004KT 050V120 9999 NSC 05/M05 Q1021 R09/70D NOSIG
Conditions at: UTSS (SAMARKAND , UZ) observed 0700 UTC 23 January 2019
Temperature: 5.0°C (41°F)
Dewpoint: -5.0°C (23°F) [RH = 48%]
Pressure (altimeter): 30.15 inches Hg (1021.0 mb)
Winds: from the E (80 degrees) at 5 MPH (4 knots; 2.1 m/s)
Visibility: 6 or more miles (10+ km)
Ceiling: at least 12,000 feet AGL
Clouds: sky clear below 12,000 feet AGL
Weather: no significant weather observed at this time

METAR text: UTSS 230630Z 08006KT 9999 NSC 04/M06 Q1021 R09/70D NOSIG
Conditions at: UTSS (SAMARKAND , UZ) observed 0630 UTC 23 January 2019
Temperature: 4.0°C (39°F)
Dewpoint: -6.0°C (21°F) [RH = 48%]
Pressure (altimeter): 30.15 inches Hg (1021.0 mb)
Winds: from the E (80 degrees) at 7 MPH (6 knots; 3.1 m/s)
Visibility: 6 or more miles (10+ km)
Ceiling: at least 12,000 feet AGL
Clouds: sky clear below 12,000 feet AGL
Weather: no significant weather observed at this time

METAR text: UTSS 230600Z 11006KT 9999 NSC 04/M05 Q1021 R09/70D NOSIG
Conditions at: UTSS (SAMARKAND , UZ) observed 0600 UTC 23 January 2019
Temperature: 4.0°C (39°F)
Dewpoint: -5.0°C (23°F) [RH = 52%]
Pressure (altimeter): 30.15 inches Hg (1021.0 mb)
Winds: from the ESE (110 degrees) at 7 MPH (6 knots; 3.1 m/s)
Visibility: 6 or more miles (10+ km)
Ceiling: at least 12,000 feet AGL
Clouds: sky clear below 12,000 feet AGL
Weather: no significant weather observed at this time

METAR text: UTSS 230530Z 12006KT 9999 NSC 03/M06 Q1021 R09/70D NOSIG
Conditions at: UTSS (SAMARKAND , UZ) observed 0530 UTC 23 January 2019
Temperature: 3.0°C (37°F)
Dewpoint: -6.0°C (21°F) [RH = 52%]
Pressure (altimeter): 30.15 inches Hg (1021.0 mb)
Winds: from the ESE (120 degrees) at 7 MPH (6 knots; 3.1 m/s)
Visibility: 6 or more miles (10+ km)
Ceiling: at least 12,000 feet AGL
Clouds: sky clear below 12,000 feet AGL
Weather: no significant weather observed at this time

METAR text: UTSS 230500Z 13004KT 9999 NSC 01/M05 Q1021 R09/70D NOSIG
Conditions at: UTSS (SAMARKAND , UZ) observed 0500 UTC 23 January 2019
Temperature: 1.0°C (34°F)
Dewpoint: -5.0°C (23°F) [RH = 64%]
Pressure (altimeter): 30.15 inches Hg (1021.0 mb)
Winds: from the SE (130 degrees) at 5 MPH (4 knots; 2.1 m/s)
Visibility: 6 or more miles (10+ km)
Ceiling: at least 12,000 feet AGL
Clouds: sky clear below 12,000 feet AGL
Weather: no significant weather observed at this time

METAR text: UTSS 230430Z 13006KT 100V160 9999 NSC 01/M06 Q1020 R09/70D NOSIG
Conditions at: UTSS (SAMARKAND , UZ) observed 0430 UTC 23 January 2019
Temperature: 1.0°C (34°F)
Dewpoint: -6.0°C (21°F) [RH = 59%]
Pressure (altimeter): 30.12 inches Hg (1020.0 mb)
Winds: from the SE (130 degrees) at 7 MPH (6 knots; 3.1 m/s)
Visibility: 6 or more miles (10+ km)
Ceiling: at least 12,000 feet AGL
Clouds: sky clear below 12,000 feet AGL
Weather: no significant weather observed at this time

METAR text: UTSS 230400Z 13004KT 9999 NSC M00/M06 Q1020 R09/70D NOSIG
Conditions at: UTSS (SAMARKAND , UZ) observed 0400 UTC 23 January 2019
Temperature: 0.0°C (32°F)
Dewpoint: -6.0°C (21°F) [RH = 64%]
Pressure (altimeter): 30.12 inches Hg (1020.0 mb)
Winds: from the SE (130 degrees) at 5 MPH (4 knots; 2.1 m/s)
Visibility: 6 or more miles (10+ km)
Ceiling: at least 12,000 feet AGL
Clouds: sky clear below 12,000 feet AGL
Weather: no significant weather observed at this time

METAR text: UTSS 230330Z 10006KT 9999 NSC M01/M06 Q1020 R09/70D NOSIG
Conditions at: UTSS (SAMARKAND , UZ) observed 0330 UTC 23 January 2019
Temperature: -1.0°C (30°F)
Dewpoint: -6.0°C (21°F) [RH = 69%]
Pressure (altimeter): 30.12 inches Hg (1020.0 mb)
Winds: from the E (100 degrees) at 7 MPH (6 knots; 3.1 m/s)
Visibility: 6 or more miles (10+ km)
Ceiling: at least 12,000 feet AGL
Clouds: sky clear below 12,000 feet AGL
Weather: no significant weather observed at this time

METAR text: UTSS 230300Z 16006KT 9999 NSC M01/M06 Q1020 R09/70D NOSIG
Conditions at: UTSS (SAMARKAND , UZ) observed 0300 UTC 23 January 2019
Temperature: -1.0°C (30°F)
Dewpoint: -6.0°C (21°F) [RH = 69%]
Pressure (altimeter): 30.12 inches Hg (1020.0 mb)
Winds: from the SSE (160 degrees) at 7 MPH (6 knots; 3.1 m/s)
Visibility: 6 or more miles (10+ km)
Ceiling: at least 12,000 feet AGL
Clouds: sky clear below 12,000 feet AGL
Weather: no significant weather observed at this time

METAR text: UTSS 230230Z 15004KT 6000 NSC M01/M06 Q1020 R09/70D NOSIG
Conditions at: UTSS (SAMARKAND , UZ) observed 0230 UTC 23 January 2019
Temperature: -1.0°C (30°F)
Dewpoint: -6.0°C (21°F) [RH = 69%]
Pressure (altimeter): 30.12 inches Hg (1020.0 mb)
Winds: from the SSE (150 degrees) at 5 MPH (4 knots; 2.1 m/s)
Visibility: 4 miles ( 6 km)
Ceiling: at least 12,000 feet AGL
Clouds: sky clear below 12,000 feet AGL
Weather: no significant weather observed at this time

METAR text: UTSS 230200Z 14004KT 6000 NSC M02/M05 Q1020 R09/70D NOSIG
Conditions at: UTSS (SAMARKAND , UZ) observed 0200 UTC 23 January 2019
Temperature: -2.0°C (28°F)
Dewpoint: -5.0°C (23°F) [RH = 80%]
Pressure (altimeter): 30.12 inches Hg (1020.0 mb)
Winds: from the SE (140 degrees) at 5 MPH (4 knots; 2.1 m/s)
Visibility: 4 miles ( 6 km)
Ceiling: at least 12,000 feet AGL
Clouds: sky clear below 12,000 feet AGL
Weather: no significant weather observed at this time

METAR text: UTSS 230130Z 13004KT 6000 NSC M02/M04 Q1020 R09/70D NOSIG
Conditions at: UTSS (SAMARKAND , UZ) observed 0130 UTC 23 January 2019
Temperature: -2.0°C (28°F)
Dewpoint: -4.0°C (25°F) [RH = 86%]
Pressure (altimeter): 30.12 inches Hg (1020.0 mb)
Winds: from the SE (130 degrees) at 5 MPH (4 knots; 2.1 m/s)
Visibility: 4 miles ( 6 km)
Ceiling: at least 12,000 feet AGL
Clouds: sky clear below 12,000 feet AGL
Weather: no significant weather observed at this time

METAR text: UTSS 230100Z 14004KT 6000 NSC M02/M05 Q1020 R09/70D NOSIG
Conditions at: UTSS (SAMARKAND , UZ) observed 0100 UTC 23 January 2019
Temperature: -2.0°C (28°F)
Dewpoint: -5.0°C (23°F) [RH = 80%]
Pressure (altimeter): 30.12 inches Hg (1020.0 mb)
Winds: from the SE (140 degrees) at 5 MPH (4 knots; 2.1 m/s)
Visibility: 4 miles ( 6 km)
Ceiling: at least 12,000 feet AGL
Clouds: sky clear below 12,000 feet AGL
Weather: no significant weather observed at this time

METAR text: UTSS 230030Z 13004KT 6000 NSC M02/M05 Q1020 R09/70D NOSIG
Conditions at: UTSS (SAMARKAND , UZ) observed 0030 UTC 23 January 2019
Temperature: -2.0°C (28°F)
Dewpoint: -5.0°C (23°F) [RH = 80%]
Pressure (altimeter): 30.12 inches Hg (1020.0 mb)
Winds: from the SE (130 degrees) at 5 MPH (4 knots; 2.1 m/s)
Visibility: 4 miles ( 6 km)
Ceiling: at least 12,000 feet AGL
Clouds: sky clear below 12,000 feet AGL
Weather: no significant weather observed at this time

METAR text: UTSS 230000Z 13004KT 6000 NSC M02/M05 Q1020 R09/70D NOSIG
Conditions at: UTSS (SAMARKAND , UZ) observed 0000 UTC 23 January 2019
Temperature: -2.0°C (28°F)
Dewpoint: -5.0°C (23°F) [RH = 80%]
Pressure (altimeter): 30.12 inches Hg (1020.0 mb)
Winds: from the SE (130 degrees) at 5 MPH (4 knots; 2.1 m/s)
Visibility: 4 miles ( 6 km)
Ceiling: at least 12,000 feet AGL
Clouds: sky clear below 12,000 feet AGL
Weather: no significant weather observed at this time

METAR text: UTSS 222330Z 13004KT 6000 NSC M02/M05 Q1020 R09/70D NOSIG
Conditions at: UTSS (SAMARKAND , UZ) observed 2330 UTC 22 January 2019
Temperature: -2.0°C (28°F)
Dewpoint: -5.0°C (23°F) [RH = 80%]
Pressure (altimeter): 30.12 inches Hg (1020.0 mb)
Winds: from the SE (130 degrees) at 5 MPH (4 knots; 2.1 m/s)
Visibility: 4 miles ( 6 km)
Ceiling: at least 12,000 feet AGL
Clouds: sky clear below 12,000 feet AGL
Weather: no significant weather observed at this time

METAR text: UTSS 222300Z 13004KT 6000 NSC M02/M05 Q1020 R09/70D NOSIG
Conditions at: UTSS (SAMARKAND , UZ) observed 2300 UTC 22 January 2019
Temperature: -2.0°C (28°F)
Dewpoint: -5.0°C (23°F) [RH = 80%]
Pressure (altimeter): 30.12 inches Hg (1020.0 mb)
Winds: from the SE (130 degrees) at 5 MPH (4 knots; 2.1 m/s)
Visibility: 4 miles ( 6 km)
Ceiling: at least 12,000 feet AGL
Clouds: sky clear below 12,000 feet AGL
Weather: no significant weather observed at this time

METAR text: UTSS 222230Z 12004KT 6000 NSC M02/M05 Q1020 R09/70D NOSIG
Conditions at: UTSS (SAMARKAND , UZ) observed 2230 UTC 22 January 2019
Temperature: -2.0°C (28°F)
Dewpoint: -5.0°C (23°F) [RH = 80%]
Pressure (altimeter): 30.12 inches Hg (1020.0 mb)
Winds: from the ESE (120 degrees) at 5 MPH (4 knots; 2.1 m/s)
Visibility: 4 miles ( 6 km)
Ceiling: at least 12,000 feet AGL
Clouds: sky clear below 12,000 feet AGL
Weather: no significant weather observed at this time

METAR text: UTSS 222200Z 12006KT 6000 NSC M02/M05 Q1020 R09/70D NOSIG
Conditions at: UTSS (SAMARKAND , UZ) observed 2200 UTC 22 January 2019
Temperature: -2.0°C (28°F)
Dewpoint: -5.0°C (23°F) [RH = 80%]
Pressure (altimeter): 30.12 inches Hg (1020.0 mb)
Winds: from the ESE (120 degrees) at 7 MPH (6 knots; 3.1 m/s)
Visibility: 4 miles ( 6 km)
Ceiling: at least 12,000 feet AGL
Clouds: sky clear below 12,000 feet AGL
Weather: no significant weather observed at this time

METAR text: UTSS 222100Z 13006KT 6000 NSC M01/M04 Q1019 R09/70D NOSIG
Conditions at: UTSS (SAMARKAND , UZ) observed 2100 UTC 22 January 2019
Temperature: -1.0°C (30°F)
Dewpoint: -4.0°C (25°F) [RH = 80%]
Pressure (altimeter): 30.09 inches Hg (1019.0 mb)
Winds: from the SE (130 degrees) at 7 MPH (6 knots; 3.1 m/s)
Visibility: 4 miles ( 6 km)
Ceiling: at least 12,000 feet AGL
Clouds: sky clear below 12,000 feet AGL
Weather: no significant weather observed at this time

METAR text: UTSS 222030Z 11004KT 6000 NSC M01/M02 Q1019 R27/CLRD70 NOSIG
Conditions at: UTSS (SAMARKAND , UZ) observed 2030 UTC 22 January 2019
Temperature: -1.0°C (30°F)
Dewpoint: -2.0°C (28°F) [RH = 93%]
Pressure (altimeter): 30.09 inches Hg (1019.0 mb)
Winds: from the ESE (110 degrees) at 5 MPH (4 knots; 2.1 m/s)
Visibility: 4 miles ( 6 km)
Ceiling: at least 12,000 feet AGL
Clouds: sky clear below 12,000 feet AGL
Weather: no significant weather observed at this time

METAR text: UTSS 222000Z 13006KT 6000 NSC M01/M02 Q1019 R09/70D NOSIG
Conditions at: UTSS (SAMARKAND , UZ) observed 2000 UTC 22 January 2019
Temperature: -1.0°C (30°F)
Dewpoint: -2.0°C (28°F) [RH = 93%]
Pressure (altimeter): 30.09 inches Hg (1019.0 mb)
Winds: from the SE (130 degrees) at 7 MPH (6 knots; 3.1 m/s)
Visibility: 4 miles ( 6 km)
Ceiling: at least 12,000 feet AGL
Clouds: sky clear below 12,000 feet AGL
Weather: no significant weather observed at this time

METAR text: UTSS 221930Z 13006KT 6000 NSC M00/M02 Q1019 R09/70D NOSIG
Conditions at: UTSS (SAMARKAND , UZ) observed 1930 UTC 22 January 2019
Temperature: 0.0°C (32°F)
Dewpoint: -2.0°C (28°F) [RH = 86%]
Pressure (altimeter): 30.09 inches Hg (1019.0 mb)
Winds: from the SE (130 degrees) at 7 MPH (6 knots; 3.1 m/s)
Visibility: 4 miles ( 6 km)
Ceiling: at least 12,000 feet AGL
Clouds: sky clear below 12,000 feet AGL
Weather: no significant weather observed at this time

METAR text: UTSS 221900Z 13006KT 6000 NSC M00/M02 Q1019 R09/70D NOSIG
Conditions at: UTSS (SAMARKAND , UZ) observed 1900 UTC 22 January 2019
Temperature: 0.0°C (32°F)
Dewpoint: -2.0°C (28°F) [RH = 86%]
Pressure (altimeter): 30.09 inches Hg (1019.0 mb)
Winds: from the SE (130 degrees) at 7 MPH (6 knots; 3.1 m/s)
Visibility: 4 miles ( 6 km)
Ceiling: at least 12,000 feet AGL
Clouds: sky clear below 12,000 feet AGL
Weather: no significant weather observed at this time

METAR text: UTSS 221830Z 13006KT 6000 NSC M00/M02 Q1019 R09/CLRD70 NOSIG
Conditions at: UTSS (SAMARKAND , UZ) observed 1830 UTC 22 January 2019
Temperature: 0.0°C (32°F)
Dewpoint: -2.0°C (28°F) [RH = 86%]
Pressure (altimeter): 30.09 inches Hg (1019.0 mb)
Winds: from the SE (130 degrees) at 7 MPH (6 knots; 3.1 m/s)
Visibility: 4 miles ( 6 km)
Ceiling: at least 12,000 feet AGL
Clouds: sky clear below 12,000 feet AGL
Weather: no significant weather observed at this time

METAR text: UTSS 221800Z 12004KT 6000 NSC M00/M02 Q1019 R09/70D NOSIG
Conditions at: UTSS (SAMARKAND , UZ) observed 1800 UTC 22 January 2019
Temperature: 0.0°C (32°F)
Dewpoint: -2.0°C (28°F) [RH = 86%]
Pressure (altimeter): 30.09 inches Hg (1019.0 mb)
Winds: from the ESE (120 degrees) at 5 MPH (4 knots; 2.1 m/s)
Visibility: 4 miles ( 6 km)
Ceiling: at least 12,000 feet AGL
Clouds: sky clear below 12,000 feet AGL
Weather: no significant weather observed at this time

METAR text: UTSS 221730Z 13006KT 6000 NSC 00/M02 Q1019 R09/70D NOSIG
Conditions at: UTSS (SAMARKAND , UZ) observed 1730 UTC 22 January 2019
Temperature: 0.0°C (32°F)
Dewpoint: -2.0°C (28°F) [RH = 86%]
Pressure (altimeter): 30.09 inches Hg (1019.0 mb)
Winds: from the SE (130 degrees) at 7 MPH (6 knots; 3.1 m/s)
Visibility: 4 miles ( 6 km)
Ceiling: at least 12,000 feet AGL
Clouds: sky clear below 12,000 feet AGL
Weather: no significant weather observed at this time

METAR text: UTSS 221700Z 13006KT 6000 NSC 01/M03 Q1019 R09/CLRD70 NOSIG
Conditions at: UTSS (SAMARKAND , UZ) observed 1700 UTC 22 January 2019
Temperature: 1.0°C (34°F)
Dewpoint: -3.0°C (27°F) [RH = 75%]
Pressure (altimeter): 30.09 inches Hg (1019.0 mb)
Winds: from the SE (130 degrees) at 7 MPH (6 knots; 3.1 m/s)
Visibility: 4 miles ( 6 km)
Ceiling: at least 12,000 feet AGL
Clouds: sky clear below 12,000 feet AGL
Weather: no significant weather observed at this time

METAR text: UTSS 221630Z 13006KT 6000 NSC 01/M03 Q1019 R09/70D NOSIG
Conditions at: UTSS (SAMARKAND , UZ) observed 1630 UTC 22 January 2019
Temperature: 1.0°C (34°F)
Dewpoint: -3.0°C (27°F) [RH = 75%]
Pressure (altimeter): 30.09 inches Hg (1019.0 mb)
Winds: from the SE (130 degrees) at 7 MPH (6 knots; 3.1 m/s)
Visibility: 4 miles ( 6 km)
Ceiling: at least 12,000 feet AGL
Clouds: sky clear below 12,000 feet AGL
Weather: no significant weather observed at this time

METAR text: UTSS 221600Z 13004KT 6000 NSC 01/M03 Q1019 R09/70D NOSIG
Conditions at: UTSS (SAMARKAND , UZ) observed 1600 UTC 22 January 2019
Temperature: 1.0°C (34°F)
Dewpoint: -3.0°C (27°F) [RH = 75%]
Pressure (altimeter): 30.09 inches Hg (1019.0 mb)
Winds: from the SE (130 degrees) at 5 MPH (4 knots; 2.1 m/s)
Visibility: 4 miles ( 6 km)
Ceiling: at least 12,000 feet AGL
Clouds: sky clear below 12,000 feet AGL
Weather: no significant weather observed at this time

METAR text: UTSS 221530Z 13004KT 6000 NSC 01/M03 Q1019 R09/70D NOSIG
Conditions at: UTSS (SAMARKAND , UZ) observed 1530 UTC 22 January 2019
Temperature: 1.0°C (34°F)
Dewpoint: -3.0°C (27°F) [RH = 75%]
Pressure (altimeter): 30.09 inches Hg (1019.0 mb)
Winds: from the SE (130 degrees) at 5 MPH (4 knots; 2.1 m/s)
Visibility: 4 miles ( 6 km)
Ceiling: at least 12,000 feet AGL
Clouds: sky clear below 12,000 feet AGL
Weather: no significant weather observed at this time

METAR text: UTSS 221500Z 13004KT 6000 NSC 01/M03 Q1019 R09/70D NOSIG
Conditions at: UTSS (SAMARKAND , UZ) observed 1500 UTC 22 January 2019
Temperature: 1.0°C (34°F)
Dewpoint: -3.0°C (27°F) [RH = 75%]
Pressure (altimeter): 30.09 inches Hg (1019.0 mb)
Winds: from the SE (130 degrees) at 5 MPH (4 knots; 2.1 m/s)
Visibility: 4 miles ( 6 km)
Ceiling: at least 12,000 feet AGL
Clouds: sky clear below 12,000 feet AGL
Weather: no significant weather observed at this time

METAR text: UTSS 221430Z 14006KT 6000 NSC 01/M03 Q1019 R09/70D NOSIG
Conditions at: UTSS (SAMARKAND , UZ) observed 1430 UTC 22 January 2019
Temperature: 1.0°C (34°F)
Dewpoint: -3.0°C (27°F) [RH = 75%]
Pressure (altimeter): 30.09 inches Hg (1019.0 mb)
Winds: from the SE (140 degrees) at 7 MPH (6 knots; 3.1 m/s)
Visibility: 4 miles ( 6 km)
Ceiling: at least 12,000 feet AGL
Clouds: sky clear below 12,000 feet AGL
Weather: no significant weather observed at this time

METAR text: UTSS 221400Z 14006KT 6000 NSC 02/M03 Q1019 R09/70D NOSIG
Conditions at: UTSS (SAMARKAND , UZ) observed 1400 UTC 22 January 2019
Temperature: 2.0°C (36°F)
Dewpoint: -3.0°C (27°F) [RH = 69%]
Pressure (altimeter): 30.09 inches Hg (1019.0 mb)
Winds: from the SE (140 degrees) at 7 MPH (6 knots; 3.1 m/s)
Visibility: 4 miles ( 6 km)
Ceiling: at least 12,000 feet AGL
Clouds: sky clear below 12,000 feet AGL
Weather: no significant weather observed at this time

METAR text: UTSS 221330Z 11006KT 6000 NSC 01/M04 Q1019 R09/70D NOSIG
Conditions at: UTSS (SAMARKAND , UZ) observed 1330 UTC 22 January 2019
Temperature: 1.0°C (34°F)
Dewpoint: -4.0°C (25°F) [RH = 69%]
Pressure (altimeter): 30.09 inches Hg (1019.0 mb)
Winds: from the ESE (110 degrees) at 7 MPH (6 knots; 3.1 m/s)
Visibility: 4 miles ( 6 km)
Ceiling: at least 12,000 feet AGL
Clouds: sky clear below 12,000 feet AGL
Weather: no significant weather observed at this time

METAR text: UTSS 221300Z 13004KT 6000 NSC 02/M04 Q1018 R09/70D NOSIG
Conditions at: UTSS (SAMARKAND , UZ) observed 1300 UTC 22 January 2019
Temperature: 2.0°C (36°F)
Dewpoint: -4.0°C (25°F) [RH = 64%]
Pressure (altimeter): 30.06 inches Hg (1018.0 mb)
Winds: from the SE (130 degrees) at 5 MPH (4 knots; 2.1 m/s)
Visibility: 4 miles ( 6 km)
Ceiling: at least 12,000 feet AGL
Clouds: sky clear below 12,000 feet AGL
Weather: no significant weather observed at this time

METAR text: UTSS 221230Z 13004KT 9999 NSC 02/M04 Q1018 R09/70D NOSIG
Conditions at: UTSS (SAMARKAND , UZ) observed 1230 UTC 22 January 2019
Temperature: 2.0°C (36°F)
Dewpoint: -4.0°C (25°F) [RH = 64%]
Pressure (altimeter): 30.06 inches Hg (1018.0 mb)
Winds: from the SE (130 degrees) at 5 MPH (4 knots; 2.1 m/s)
Visibility: 6 or more miles (10+ km)
Ceiling: at least 12,000 feet AGL
Clouds: sky clear below 12,000 feet AGL
Weather: no significant weather observed at this time

METAR text: UTSS 221200Z 09004KT 9999 NSC 03/M04 Q1018 R09/70D NOSIG
Conditions at: UTSS (SAMARKAND , UZ) observed 1200 UTC 22 January 2019
Temperature: 3.0°C (37°F)
Dewpoint: -4.0°C (25°F) [RH = 60%]
Pressure (altimeter): 30.06 inches Hg (1018.0 mb)
Winds: from the E (90 degrees) at 5 MPH (4 knots; 2.1 m/s)
Visibility: 6 or more miles (10+ km)
Ceiling: at least 12,000 feet AGL
Clouds: sky clear below 12,000 feet AGL
Weather: no significant weather observed at this time

METAR text: UTSS 221130Z 09004KT 060V120 9999 NSC 03/M04 Q1018 R27/70D NOSIG
Conditions at: UTSS (SAMARKAND , UZ) observed 1130 UTC 22 January 2019
Temperature: 3.0°C (37°F)
Dewpoint: -4.0°C (25°F) [RH = 60%]
Pressure (altimeter): 30.06 inches Hg (1018.0 mb)
Winds: from the E (90 degrees) at 5 MPH (4 knots; 2.1 m/s)
Visibility: 6 or more miles (10+ km)
Ceiling: at least 12,000 feet AGL
Clouds: sky clear below 12,000 feet AGL
Weather: no significant weather observed at this time

METAR text: UTSS 221100Z 09004KT 050V150 9999 NSC 04/M04 Q1018 R09/70D NOSIG
Conditions at: UTSS (SAMARKAND , UZ) observed 1100 UTC 22 January 2019
Temperature: 4.0°C (39°F)
Dewpoint: -4.0°C (25°F) [RH = 56%]
Pressure (altimeter): 30.06 inches Hg (1018.0 mb)
Winds: from the E (90 degrees) at 5 MPH (4 knots; 2.1 m/s)
Visibility: 6 or more miles (10+ km)
Ceiling: at least 12,000 feet AGL
Clouds: sky clear below 12,000 feet AGL
Weather: no significant weather observed at this time

METAR text: UTSS 221030Z 07004KT 030V100 9999 NSC 04/M04 Q1018 R09/70D NOSIG
Conditions at: UTSS (SAMARKAND , UZ) observed 1030 UTC 22 January 2019
Temperature: 4.0°C (39°F)
Dewpoint: -4.0°C (25°F) [RH = 56%]
Pressure (altimeter): 30.06 inches Hg (1018.0 mb)
Winds: from the ENE (70 degrees) at 5 MPH (4 knots; 2.1 m/s)
Visibility: 6 or more miles (10+ km)
Ceiling: at least 12,000 feet AGL
Clouds: sky clear below 12,000 feet AGL
Weather: no significant weather observed at this time

METAR text: UTSS 221000Z 08006KT 040V110 9999 NSC 04/M03 Q1018 R09/70D NOSIG
Conditions at: UTSS (SAMARKAND , UZ) observed 1000 UTC 22 January 2019
Temperature: 4.0°C (39°F)
Dewpoint: -3.0°C (27°F) [RH = 60%]
Pressure (altimeter): 30.06 inches Hg (1018.0 mb)
Winds: from the E (80 degrees) at 7 MPH (6 knots; 3.1 m/s)
Visibility: 6 or more miles (10+ km)
Ceiling: at least 12,000 feet AGL
Clouds: sky clear below 12,000 feet AGL
Weather: no significant weather observed at this time

METAR text: UTSS 220930Z 07006KT 020V120 9999 NSC 04/M03 Q1018 R09/70D NOSIG
Conditions at: UTSS (SAMARKAND , UZ) observed 0930 UTC 22 January 2019
Temperature: 4.0°C (39°F)
Dewpoint: -3.0°C (27°F) [RH = 60%]
Pressure (altimeter): 30.06 inches Hg (1018.0 mb)
Winds: from the ENE (70 degrees) at 7 MPH (6 knots; 3.1 m/s)
Visibility: 6 or more miles (10+ km)
Ceiling: at least 12,000 feet AGL
Clouds: sky clear below 12,000 feet AGL
Weather: no significant weather observed at this time

METAR text: UTSS 220900Z 07006KT 030V130 9999 NSC 04/M04 Q1019 R09/70D NOSIG
Conditions at: UTSS (SAMARKAND , UZ) observed 0900 UTC 22 January 2019
Temperature: 4.0°C (39°F)
Dewpoint: -4.0°C (25°F) [RH = 56%]
Pressure (altimeter): 30.09 inches Hg (1019.0 mb)
Winds: from the ENE (70 degrees) at 7 MPH (6 knots; 3.1 m/s)
Visibility: 6 or more miles (10+ km)
Ceiling: at least 12,000 feet AGL
Clouds: sky clear below 12,000 feet AGL
Weather: no significant weather observed at this time

METAR text: UTSS 220830Z 11008KT 080V140 7000 NSC 03/M03 Q1019 R09/70D NOSIG
Conditions at: UTSS (SAMARKAND , UZ) observed 0830 UTC 22 January 2019
Temperature: 3.0°C (37°F)
Dewpoint: -3.0°C (27°F) [RH = 65%]
Pressure (altimeter): 30.09 inches Hg (1019.0 mb)
Winds: from the ESE (110 degrees) at 9 MPH (8 knots; 4.1 m/s)
Visibility: 4 miles ( 7 km)
Ceiling: at least 12,000 feet AGL
Clouds: sky clear below 12,000 feet AGL
Weather: no significant weather observed at this time

METAR text: UTSS 220800Z 10006KT 070V140 7000 NSC 03/M03 Q1019 R09/70D NOSIG
Conditions at: UTSS (SAMARKAND , UZ) observed 0800 UTC 22 January 2019
Temperature: 3.0°C (37°F)
Dewpoint: -3.0°C (27°F) [RH = 65%]
Pressure (altimeter): 30.09 inches Hg (1019.0 mb)
Winds: from the E (100 degrees) at 7 MPH (6 knots; 3.1 m/s)
Visibility: 4 miles ( 7 km)
Ceiling: at least 12,000 feet AGL
Clouds: sky clear below 12,000 feet AGL
Weather: no significant weather observed at this time

METAR text: UTSS 220730Z 11008KT 080V150 6000 NSC 03/M03 Q1019 R09/70D NOSIG
Conditions at: UTSS (SAMARKAND , UZ) observed 0730 UTC 22 January 2019
Temperature: 3.0°C (37°F)
Dewpoint: -3.0°C (27°F) [RH = 65%]
Pressure (altimeter): 30.09 inches Hg (1019.0 mb)
Winds: from the ESE (110 degrees) at 9 MPH (8 knots; 4.1 m/s)
Visibility: 4 miles ( 6 km)
Ceiling: at least 12,000 feet AGL
Clouds: sky clear below 12,000 feet AGL
Weather: no significant weather observed at this time

METAR text: UTSS 220700Z 11008KT 6000 NSC 02/M03 Q1020 R09/70D NOSIG
Conditions at: UTSS (SAMARKAND , UZ) observed 0700 UTC 22 January 2019
Temperature: 2.0°C (36°F)
Dewpoint: -3.0°C (27°F) [RH = 69%]
Pressure (altimeter): 30.12 inches Hg (1020.0 mb)
Winds: from the ESE (110 degrees) at 9 MPH (8 knots; 4.1 m/s)
Visibility: 4 miles ( 6 km)
Ceiling: at least 12,000 feet AGL
Clouds: sky clear below 12,000 feet AGL
Weather: no significant weather observed at this time

METAR text: UTSS 220630Z 11008KT 090V150 5000 BR NSC 02/M02 Q1020 R09/70D NOSIG
Conditions at: UTSS (SAMARKAND , UZ) observed 0630 UTC 22 January 2019
Temperature: 2.0°C (36°F)
Dewpoint: -2.0°C (28°F) [RH = 75%]
Pressure (altimeter): 30.12 inches Hg (1020.0 mb)
Winds: from the ESE (110 degrees) at 9 MPH (8 knots; 4.1 m/s)
Visibility: 3 miles ( 5 km)
Ceiling: at least 12,000 feet AGL
Clouds: sky clear below 12,000 feet AGL
Weather: BR  (mist)

METAR text: UTSS 220600Z 13008KT 090V150 5000 BR NSC 01/M02 Q1020 R09/70D NOSIG
Conditions at: UTSS (SAMARKAND , UZ) observed 0600 UTC 22 January 2019
Temperature: 1.0°C (34°F)
Dewpoint: -2.0°C (28°F) [RH = 80%]
Pressure (altimeter): 30.12 inches Hg (1020.0 mb)
Winds: from the SE (130 degrees) at 9 MPH (8 knots; 4.1 m/s)
Visibility: 3 miles ( 5 km)
Ceiling: at least 12,000 feet AGL
Clouds: sky clear below 12,000 feet AGL
Weather: BR  (mist)

METAR text: UTSS 220530Z 13006KT 100V160 5000 BR NSC 01/M02 Q1020 R09/70D NOSIG
Conditions at: UTSS (SAMARKAND , UZ) observed 0530 UTC 22 January 2019
Temperature: 1.0°C (34°F)
Dewpoint: -2.0°C (28°F) [RH = 80%]
Pressure (altimeter): 30.12 inches Hg (1020.0 mb)
Winds: from the SE (130 degrees) at 7 MPH (6 knots; 3.1 m/s)
Visibility: 3 miles ( 5 km)
Ceiling: at least 12,000 feet AGL
Clouds: sky clear below 12,000 feet AGL
Weather: BR  (mist)

METAR text: UTSS 220500Z 13008KT 4000 BR NSC M00/M03 Q1020 R09/70D NOSIG
Conditions at: UTSS (SAMARKAND , UZ) observed 0500 UTC 22 January 2019
Temperature: 0.0°C (32°F)
Dewpoint: -3.0°C (27°F) [RH = 80%]
Pressure (altimeter): 30.12 inches Hg (1020.0 mb)
Winds: from the SE (130 degrees) at 9 MPH (8 knots; 4.1 m/s)
Visibility: 2.49 miles (4.01 km)
Ceiling: at least 12,000 feet AGL
Clouds: sky clear below 12,000 feet AGL
Weather: BR  (mist)

Forecast for: UTSS (SAMARKAND , UZ)
Text: TAF UTSS 231100Z 2312/2412 15010G20KT 9999 NSC
Forecast period: 1200 UTC 23 January 2019 to 1200 UTC 24 January 2019
Forecast type: FROM: standard forecast or significant change
Winds: from the SSE (150 degrees) at 12 MPH (10 knots; 5.1 m/s)
gusting to 23 MPH (20 knots; 10.3 m/s)
Visibility: 6 or more miles 10+ km)
Ceiling: unknown
Clouds: missing
Weather: no significant weather forecast for this period
Text: TEMPO 2316/2403 09008KT 2500 BR SCT008
Forecast period: 1600 UTC 23 January 2019 to 0300 UTC 24 January 2019
Forecast type: TEMPORARY: The following changes expected for less than half the time period
Winds: from the E (90 degrees) at 9 MPH (8 knots; 4.1 m/s)
Visibility: 1.55 miles (2.49 km)
Ceiling: at least 12,000 feet AGL
Clouds: scattered clouds at 800 feet AGL
Weather: BR  (mist)